sensor_id;sensor_type;location;lat;lon;timestamp;P1;durP1;ratioP1;P2;durP2;ratioP2
7003;SDS011;3542;48.812;9.146;2022-08-01T00:01:34;4.30;;;2.00;;
7003;SDS011;3542;48.812;9.146;2022-08-01T00:04:00;2.60;;;2.50;;
7003;SDS011;3542;48.812;9.146;2022-08-01T00:06:25;2.37;;;2.10;;
7003;SDS011;3542;48.812;9.146;2022-08-01T00:08:51;3.03;;;2.73;;
7003;SDS011;3542;48.812;9.146;2022-08-01T00:11:17;5.67;;;2.53;;
7003;SDS011;3542;48.812;9.146;2022-08-01T00:13:42;4.93;;;2.97;;
7003;SDS011;3542;48.812;9.146;2022-08-01T00:16:08;2.90;;;2.60;;
7003;SDS011;3542;48.812;9.146;2022-08-01T00:18:34;2.97;;;2.67;;
7003;SDS011;3542;48.812;9.146;2022-08-01T00:21:00;2.60;;;2.20;;
7003;SDS011;3542;48.812;9.146;2022-08-01T00:23:26;3.00;;;2.10;;
7003;SDS011;3542;48.812;9.146;2022-08-01T00:25:52;4.83;;;2.30;;
7003;SDS011;3542;48.812;9.146;2022-08-01T00:28:18;3.37;;;2.50;;
7003;SDS011;3542;48.812;9.146;2022-08-01T00:30:43;4.50;;;2.87;;
7003;SDS011;3542;48.812;9.146;2022-08-01T00:33:09;3.53;;;2.23;;
7003;SDS011;3542;48.812;9.146;2022-08-01T00:35:34;8.40;;;2.60;;
7003;SDS011;3542;48.812;9.146;2022-08-01T00:38:00;2.73;;;2.53;;
7003;SDS011;3542;48.812;9.146;2022-08-01T00:40:26;2.53;;;2.43;;
7003;SDS011;3542;48.812;9.146;2022-08-01T00:42:51;2.70;;;2.50;;
7003;SDS011;3542;48.812;9.146;2022-08-01T00:45:17;2.93;;;2.70;;
7003;SDS011;3542;48.812;9.146;2022-08-01T00:47:43;2.40;;;2.23;;
7003;SDS011;3542;48.812;9.146;2022-08-01T00:50:09;2.77;;;2.50;;
7003;SDS011;3542;48.812;9.146;2022-08-01T00:52:35;3.50;;;3.20;;
7003;SDS011;3542;48.812;9.146;2022-08-01T00:55:01;3.63;;;2.50;;
7003;SDS011;3542;48.812;9.146;2022-08-01T00:57:27;6.70;;;2.50;;
7003;SDS011;3542;48.812;9.146;2022-08-01T00:59:54;2.80;;;2.60;;
7003;SDS011;3542;48.812;9.146;2022-08-01T02:32:59;3.30;;;3.00;;
7003;SDS011;3542;48.812;9.146;2022-08-01T02:35:43;3.10;;;2.90;;
7003;SDS011;3542;48.812;9.146;2022-08-01T02:38:12;2.93;;;2.73;;
7003;SDS011;3542;48.812;9.146;2022-08-01T02:40:40;4.37;;;3.40;;
7003;SDS011;3542;48.812;9.146;2022-08-01T02:43:08;2.77;;;2.57;;
7003;SDS011;3542;48.812;9.146;2022-08-01T02:45:37;3.47;;;3.17;;
7003;SDS011;3542;48.812;9.146;2022-08-01T02:48:12;3.50;;;3.30;;
7003;SDS011;3542;48.812;9.146;2022-08-01T02:50:42;5.67;;;3.70;;
7003;SDS011;3542;48.812;9.146;2022-08-01T02:53:09;3.23;;;2.70;;
7003;SDS011;3542;48.812;9.146;2022-08-01T02:55:38;2.73;;;2.63;;
7003;SDS011;3542;48.812;9.146;2022-08-01T02:58:04;3.13;;;2.83;;
7003;SDS011;3542;48.812;9.146;2022-08-01T03:00:33;3.17;;;2.90;;
7003;SDS011;3542;48.812;9.146;2022-08-01T03:03:00;3.03;;;2.83;;
7003;SDS011;3542;48.812;9.146;2022-08-01T03:05:27;3.00;;;2.80;;
7003;SDS011;3542;48.812;9.146;2022-08-01T03:07:55;3.47;;;3.27;;
7003;SDS011;3542;48.812;9.146;2022-08-01T03:10:22;3.40;;;3.10;;
7003;SDS011;3542;48.812;9.146;2022-08-01T03:12:49;3.70;;;3.30;;
7003;SDS011;3542;48.812;9.146;2022-08-01T03:15:16;3.63;;;3.33;;
7003;SDS011;3542;48.812;9.146;2022-08-01T03:17:44;2.50;;;2.27;;
7003;SDS011;3542;48.812;9.146;2022-08-01T03:20:13;6.93;;;3.07;;
7003;SDS011;3542;48.812;9.146;2022-08-01T03:22:40;3.40;;;3.17;;
7003;SDS011;3542;48.812;9.146;2022-08-01T03:25:08;3.87;;;2.67;;
7003;SDS011;3542;48.812;9.146;2022-08-01T03:27:35;3.13;;;2.93;;
7003;SDS011;3542;48.812;9.146;2022-08-01T03:30:02;3.20;;;3.00;;
7003;SDS011;3542;48.812;9.146;2022-08-01T03:32:29;4.10;;;3.00;;
7003;SDS011;3542;48.812;9.146;2022-08-01T03:34:55;3.13;;;2.90;;
7003;SDS011;3542;48.812;9.146;2022-08-01T03:37:26;3.50;;;3.20;;
7003;SDS011;3542;48.812;9.146;2022-08-01T03:40:02;3.60;;;3.30;;
7003;SDS011;3542;48.812;9.146;2022-08-01T03:42:32;3.00;;;2.80;;
7003;SDS011;3542;48.812;9.146;2022-08-01T03:45:06;4.63;;;3.40;;
7003;SDS011;3542;48.812;9.146;2022-08-01T03:47:35;3.53;;;2.90;;
7003;SDS011;3542;48.812;9.146;2022-08-01T03:50:05;3.00;;;2.73;;
7003;SDS011;3542;48.812;9.146;2022-08-01T03:52:32;3.87;;;3.10;;
7003;SDS011;3542;48.812;9.146;2022-08-01T03:55:01;4.60;;;3.97;;
7003;SDS011;3542;48.812;9.146;2022-08-01T03:57:30;3.40;;;3.20;;
7003;SDS011;3542;48.812;9.146;2022-08-01T03:59:57;3.97;;;3.57;;
7003;SDS011;3542;48.812;9.146;2022-08-01T04:02:23;3.03;;;2.83;;
7003;SDS011;3542;48.812;9.146;2022-08-01T04:04:51;3.57;;;3.03;;
7003;SDS011;3542;48.812;9.146;2022-08-01T04:07:24;3.20;;;2.90;;
7003;SDS011;3542;48.812;9.146;2022-08-01T04:09:55;2.67;;;2.57;;
7003;SDS011;3542;48.812;9.146;2022-08-01T04:12:21;3.57;;;3.27;;
7003;SDS011;3542;48.812;9.146;2022-08-01T04:14:47;3.23;;;3.03;;
7003;SDS011;3542;48.812;9.146;2022-08-01T04:17:13;3.43;;;2.60;;
7003;SDS011;3542;48.812;9.146;2022-08-01T04:19:40;3.20;;;2.90;;
7003;SDS011;3542;48.812;9.146;2022-08-01T04:22:06;4.00;;;3.27;;
7003;SDS011;3542;48.812;9.146;2022-08-01T04:24:33;3.27;;;3.07;;
7003;SDS011;3542;48.812;9.146;2022-08-01T04:27:01;3.80;;;3.50;;
7003;SDS011;3542;48.812;9.146;2022-08-01T04:29:29;3.50;;;3.23;;
7003;SDS011;3542;48.812;9.146;2022-08-01T04:31:56;3.90;;;3.50;;
7003;SDS011;3542;48.812;9.146;2022-08-01T04:34:25;4.20;;;3.53;;
7003;SDS011;3542;48.812;9.146;2022-08-01T04:36:54;3.60;;;3.30;;
7003;SDS011;3542;48.812;9.146;2022-08-01T04:39:20;3.83;;;3.53;;
7003;SDS011;3542;48.812;9.146;2022-08-01T04:41:52;3.30;;;3.10;;
7003;SDS011;3542;48.812;9.146;2022-08-01T04:44:21;2.57;;;2.40;;
7003;SDS011;3542;48.812;9.146;2022-08-01T04:46:48;3.97;;;2.53;;
7003;SDS011;3542;48.812;9.146;2022-08-01T04:49:15;2.70;;;2.50;;
7003;SDS011;3542;48.812;9.146;2022-08-01T04:51:54;2.87;;;2.60;;
7003;SDS011;3542;48.812;9.146;2022-08-01T04:54:25;5.07;;;3.10;;
7003;SDS011;3542;48.812;9.146;2022-08-01T04:56:51;2.47;;;2.37;;
7003;SDS011;3542;48.812;9.146;2022-08-01T04:59:18;9.10;;;3.40;;
7003;SDS011;3542;48.812;9.146;2022-08-01T05:02:03;2.93;;;2.73;;
7003;SDS011;3542;48.812;9.146;2022-08-01T05:04:28;3.57;;;2.83;;
7003;SDS011;3542;48.812;9.146;2022-08-01T05:06:54;3.37;;;2.10;;
7003;SDS011;3542;48.812;9.146;2022-08-01T05:09:19;3.50;;;2.43;;
7003;SDS011;3542;48.812;9.146;2022-08-01T05:11:45;3.40;;;2.57;;
7003;SDS011;3542;48.812;9.146;2022-08-01T05:14:11;2.50;;;2.40;;
7003;SDS011;3542;48.812;9.146;2022-08-01T05:16:36;2.90;;;2.60;;
7003;SDS011;3542;48.812;9.146;2022-08-01T05:19:02;2.20;;;2.10;;
7003;SDS011;3542;48.812;9.146;2022-08-01T05:21:27;2.10;;;2.00;;
7003;SDS011;3542;48.812;9.146;2022-08-01T05:23:53;1.60;;;1.47;;
7003;SDS011;3542;48.812;9.146;2022-08-01T05:26:18;2.40;;;2.20;;
7003;SDS011;3542;48.812;9.146;2022-08-01T05:28:44;1.73;;;1.63;;
7003;SDS011;3542;48.812;9.146;2022-08-01T05:31:09;2.07;;;1.87;;
7003;SDS011;3542;48.812;9.146;2022-08-01T05:33:35;1.77;;;1.40;;
7003;SDS011;3542;48.812;9.146;2022-08-01T05:36:01;4.70;;;1.63;;
7003;SDS011;3542;48.812;9.146;2022-08-01T05:38:26;2.80;;;1.60;;
7003;SDS011;3542;48.812;9.146;2022-08-01T05:40:52;3.03;;;2.10;;
7003;SDS011;3542;48.812;9.146;2022-08-01T05:43:17;4.00;;;1.60;;
7003;SDS011;3542;48.812;9.146;2022-08-01T05:45:43;1.60;;;1.50;;
7003;SDS011;3542;48.812;9.146;2022-08-01T05:48:09;3.80;;;1.23;;
7003;SDS011;3542;48.812;9.146;2022-08-01T05:50:34;1.63;;;1.53;;
7003;SDS011;3542;48.812;9.146;2022-08-01T05:53:00;1.70;;;1.20;;
7003;SDS011;3542;48.812;9.146;2022-08-01T05:55:26;2.30;;;1.20;;
7003;SDS011;3542;48.812;9.146;2022-08-01T05:57:51;1.43;;;1.33;;
7003;SDS011;3542;48.812;9.146;2022-08-01T06:00:17;2.13;;;1.93;;
7003;SDS011;3542;48.812;9.146;2022-08-01T06:02:42;1.50;;;1.40;;
7003;SDS011;3542;48.812;9.146;2022-08-01T06:05:08;1.93;;;1.07;;
7003;SDS011;3542;48.812;9.146;2022-08-01T06:07:35;1.37;;;1.27;;
7003;SDS011;3542;48.812;9.146;2022-08-01T06:10:00;2.83;;;1.20;;
7003;SDS011;3542;48.812;9.146;2022-08-01T06:12:26;3.70;;;1.90;;
7003;SDS011;3542;48.812;9.146;2022-08-01T06:14:52;2.30;;;1.40;;
7003;SDS011;3542;48.812;9.146;2022-08-01T06:17:17;2.43;;;1.13;;
7003;SDS011;3542;48.812;9.146;2022-08-01T06:19:43;2.57;;;1.03;;
7003;SDS011;3542;48.812;9.146;2022-08-01T06:22:08;1.20;;;1.10;;
7003;SDS011;3542;48.812;9.146;2022-08-01T06:24:34;2.10;;;1.30;;
7003;SDS011;3542;48.812;9.146;2022-08-01T06:26:59;1.50;;;1.23;;
7003;SDS011;3542;48.812;9.146;2022-08-01T06:29:25;3.20;;;0.97;;
7003;SDS011;3542;48.812;9.146;2022-08-01T06:31:50;1.57;;;1.47;;
7003;SDS011;3542;48.812;9.146;2022-08-01T06:34:16;3.83;;;1.33;;
7003;SDS011;3542;48.812;9.146;2022-08-01T06:36:41;1.10;;;1.00;;
7003;SDS011;3542;48.812;9.146;2022-08-01T06:39:07;1.83;;;1.10;;
7003;SDS011;3542;48.812;9.146;2022-08-01T06:41:32;2.40;;;1.47;;
7003;SDS011;3542;48.812;9.146;2022-08-01T06:43:58;2.70;;;1.00;;
7003;SDS011;3542;48.812;9.146;2022-08-01T06:46:27;1.73;;;1.23;;
7003;SDS011;3542;48.812;9.146;2022-08-01T06:48:52;1.53;;;1.30;;
7003;SDS011;3542;48.812;9.146;2022-08-01T06:51:18;2.60;;;1.33;;
7003;SDS011;3542;48.812;9.146;2022-08-01T06:53:45;3.30;;;1.17;;
7003;SDS011;3542;48.812;9.146;2022-08-01T06:56:11;1.20;;;1.10;;
7003;SDS011;3542;48.812;9.146;2022-08-01T06:58:36;3.63;;;1.00;;
7003;SDS011;3542;48.812;9.146;2022-08-01T07:01:03;1.83;;;1.10;;
7003;SDS011;3542;48.812;9.146;2022-08-01T07:03:30;1.17;;;1.03;;
7003;SDS011;3542;48.812;9.146;2022-08-01T07:05:56;1.00;;;0.90;;
7003;SDS011;3542;48.812;9.146;2022-08-01T07:08:22;0.90;;;0.90;;
7003;SDS011;3542;48.812;9.146;2022-08-01T07:10:47;1.83;;;0.70;;
7003;SDS011;3542;48.812;9.146;2022-08-01T07:13:13;0.83;;;0.83;;
7003;SDS011;3542;48.812;9.146;2022-08-01T07:15:42;1.73;;;1.20;;
7003;SDS011;3542;48.812;9.146;2022-08-01T07:18:08;0.90;;;0.80;;
7003;SDS011;3542;48.812;9.146;2022-08-01T07:20:33;1.13;;;0.97;;
7003;SDS011;3542;48.812;9.146;2022-08-01T07:22:59;1.30;;;1.17;;
7003;SDS011;3542;48.812;9.146;2022-08-01T07:25:24;1.20;;;1.10;;
7003;SDS011;3542;48.812;9.146;2022-08-01T07:27:50;1.40;;;1.03;;
7003;SDS011;3542;48.812;9.146;2022-08-01T07:30:15;3.20;;;1.20;;
7003;SDS011;3542;48.812;9.146;2022-08-01T07:32:41;1.57;;;1.30;;
7003;SDS011;3542;48.812;9.146;2022-08-01T07:35:06;1.37;;;1.10;;
7003;SDS011;3542;48.812;9.146;2022-08-01T07:37:32;3.63;;;1.30;;
7003;SDS011;3542;48.812;9.146;2022-08-01T07:39:58;5.83;;;1.20;;
7003;SDS011;3542;48.812;9.146;2022-08-01T07:42:23;1.87;;;1.00;;
7003;SDS011;3542;48.812;9.146;2022-08-01T07:44:49;1.50;;;1.10;;
7003;SDS011;3542;48.812;9.146;2022-08-01T07:47:14;1.40;;;1.20;;
7003;SDS011;3542;48.812;9.146;2022-08-01T07:49:40;2.40;;;1.20;;
7003;SDS011;3542;48.812;9.146;2022-08-01T07:52:06;1.27;;;1.13;;
7003;SDS011;3542;48.812;9.146;2022-08-01T07:54:32;3.03;;;1.57;;
7003;SDS011;3542;48.812;9.146;2022-08-01T07:56:58;2.20;;;1.10;;
7003;SDS011;3542;48.812;9.146;2022-08-01T07:59:23;0.90;;;0.90;;
7003;SDS011;3542;48.812;9.146;2022-08-01T08:01:49;3.43;;;1.43;;
7003;SDS011;3542;48.812;9.146;2022-08-01T08:04:16;1.93;;;1.13;;
7003;SDS011;3542;48.812;9.146;2022-08-01T08:06:42;1.77;;;1.67;;
7003;SDS011;3542;48.812;9.146;2022-08-01T08:09:08;5.90;;;1.00;;
7003;SDS011;3542;48.812;9.146;2022-08-01T08:11:33;6.30;;;1.30;;
7003;SDS011;3542;48.812;9.146;2022-08-01T08:13:59;1.20;;;1.20;;
7003;SDS011;3542;48.812;9.146;2022-08-01T08:16:24;1.30;;;1.20;;
7003;SDS011;3542;48.812;9.146;2022-08-01T08:18:51;5.10;;;1.50;;
7003;SDS011;3542;48.812;9.146;2022-08-01T08:21:17;2.43;;;1.83;;
7003;SDS011;3542;48.812;9.146;2022-08-01T08:23:42;1.40;;;1.30;;
7003;SDS011;3542;48.812;9.146;2022-08-01T08:26:26;1.47;;;1.30;;
7003;SDS011;3542;48.812;9.146;2022-08-01T08:28:51;1.77;;;1.67;;
7003;SDS011;3542;48.812;9.146;2022-08-01T08:31:17;1.60;;;1.30;;
7003;SDS011;3542;48.812;9.146;2022-08-01T08:33:42;2.10;;;1.03;;
7003;SDS011;3542;48.812;9.146;2022-08-01T08:36:08;4.13;;;2.10;;
7003;SDS011;3542;48.812;9.146;2022-08-01T08:38:33;4.40;;;1.40;;
7003;SDS011;3542;48.812;9.146;2022-08-01T08:40:59;1.47;;;1.47;;
7003;SDS011;3542;48.812;9.146;2022-08-01T08:43:25;1.90;;;1.80;;
7003;SDS011;3542;48.812;9.146;2022-08-01T08:45:51;5.50;;;1.60;;
7003;SDS011;3542;48.812;9.146;2022-08-01T08:48:17;6.50;;;2.97;;
7003;SDS011;3542;48.812;9.146;2022-08-01T08:50:43;2.83;;;2.63;;
7003;SDS011;3542;48.812;9.146;2022-08-01T08:53:10;5.73;;;3.40;;
7003;SDS011;3542;48.812;9.146;2022-08-01T08:55:39;4.17;;;3.77;;
7003;SDS011;3542;48.812;9.146;2022-08-01T08:58:09;4.83;;;3.10;;
7003;SDS011;3542;48.812;9.146;2022-08-01T09:00:39;4.20;;;3.80;;
7003;SDS011;3542;48.812;9.146;2022-08-01T09:03:06;6.27;;;4.87;;
7003;SDS011;3542;48.812;9.146;2022-08-01T09:05:31;6.00;;;5.40;;
7003;SDS011;3542;48.812;9.146;2022-08-01T09:07:57;6.00;;;5.50;;
7003;SDS011;3542;48.812;9.146;2022-08-01T09:10:22;4.97;;;4.43;;
7003;SDS011;3542;48.812;9.146;2022-08-01T09:13:04;7.90;;;5.80;;
7003;SDS011;3542;48.812;9.146;2022-08-01T09:15:37;4.67;;;4.30;;
7003;SDS011;3542;48.812;9.146;2022-08-01T09:18:08;4.80;;;4.23;;
7003;SDS011;3542;48.812;9.146;2022-08-01T09:20:33;3.87;;;3.47;;
7003;SDS011;3542;48.812;9.146;2022-08-01T09:23:02;3.97;;;3.07;;
7003;SDS011;3542;48.812;9.146;2022-08-01T09:25:28;4.23;;;3.07;;
7003;SDS011;3542;48.812;9.146;2022-08-01T09:28:02;4.00;;;2.73;;
7003;SDS011;3542;48.812;9.146;2022-08-01T09:30:30;2.97;;;2.73;;
7003;SDS011;3542;48.812;9.146;2022-08-01T09:33:03;6.43;;;2.60;;
7003;SDS011;3542;48.812;9.146;2022-08-01T09:35:31;3.23;;;2.90;;
7003;SDS011;3542;48.812;9.146;2022-08-01T09:38:11;4.33;;;3.10;;
7003;SDS011;3542;48.812;9.146;2022-08-01T09:40:54;3.13;;;2.93;;
7003;SDS011;3542;48.812;9.146;2022-08-01T09:43:21;3.80;;;3.00;;
7003;SDS011;3542;48.812;9.146;2022-08-01T09:45:49;3.70;;;3.40;;
7003;SDS011;3542;48.812;9.146;2022-08-01T09:48:15;3.60;;;3.40;;
7003;SDS011;3542;48.812;9.146;2022-08-01T09:50:45;3.63;;;3.33;;
7003;SDS011;3542;48.812;9.146;2022-08-01T09:53:12;4.47;;;3.67;;
7003;SDS011;3542;48.812;9.146;2022-08-01T09:55:38;6.87;;;3.80;;
7003;SDS011;3542;48.812;9.146;2022-08-01T09:58:05;3.67;;;3.43;;
7003;SDS011;3542;48.812;9.146;2022-08-01T10:00:31;3.63;;;3.30;;
7003;SDS011;3542;48.812;9.146;2022-08-01T10:02:58;4.10;;;3.80;;
7003;SDS011;3542;48.812;9.146;2022-08-01T10:05:32;3.80;;;3.47;;
7003;SDS011;3542;48.812;9.146;2022-08-01T10:07:59;3.87;;;3.47;;
7003;SDS011;3542;48.812;9.146;2022-08-01T10:10:28;3.70;;;3.40;;
7003;SDS011;3542;48.812;9.146;2022-08-01T10:12:53;6.80;;;3.53;;
7003;SDS011;3542;48.812;9.146;2022-08-01T10:15:21;3.70;;;3.40;;
7003;SDS011;3542;48.812;9.146;2022-08-01T10:17:52;3.00;;;2.90;;
7003;SDS011;3542;48.812;9.146;2022-08-01T10:20:19;2.93;;;2.73;;
7003;SDS011;3542;48.812;9.146;2022-08-01T10:22:47;2.00;;;1.90;;
7003;SDS011;3542;48.812;9.146;2022-08-01T10:25:14;2.23;;;2.03;;
7003;SDS011;3542;48.812;9.146;2022-08-01T10:27:43;2.50;;;2.17;;
7003;SDS011;3542;48.812;9.146;2022-08-01T10:30:12;1.70;;;1.60;;
7003;SDS011;3542;48.812;9.146;2022-08-01T10:32:38;2.70;;;2.00;;
7003;SDS011;3542;48.812;9.146;2022-08-01T10:35:07;2.20;;;2.10;;
7003;SDS011;3542;48.812;9.146;2022-08-01T10:37:33;2.70;;;2.17;;
7003;SDS011;3542;48.812;9.146;2022-08-01T10:40:02;2.90;;;2.80;;
7003;SDS011;3542;48.812;9.146;2022-08-01T10:42:30;5.27;;;2.47;;
7003;SDS011;3542;48.812;9.146;2022-08-01T10:44:56;3.10;;;2.90;;
7003;SDS011;3542;48.812;9.146;2022-08-01T10:47:40;3.90;;;2.70;;
7003;SDS011;3542;48.812;9.146;2022-08-01T10:53:17;2.43;;;2.33;;
7003;SDS011;3542;48.812;9.146;2022-08-01T10:55:45;2.47;;;2.30;;
7003;SDS011;3542;48.812;9.146;2022-08-01T11:00:48;2.30;;;2.10;;
7003;SDS011;3542;48.812;9.146;2022-08-01T11:03:34;2.77;;;2.60;;
7003;SDS011;3542;48.812;9.146;2022-08-01T11:06:00;2.33;;;2.13;;
7003;SDS011;3542;48.812;9.146;2022-08-01T11:08:28;2.73;;;2.63;;
7003;SDS011;3542;48.812;9.146;2022-08-01T11:11:02;6.23;;;2.50;;
7003;SDS011;3542;48.812;9.146;2022-08-01T11:16:40;3.13;;;2.53;;
7003;SDS011;3542;48.812;9.146;2022-08-01T11:19:06;2.50;;;2.20;;
7003;SDS011;3542;48.812;9.146;2022-08-01T11:27:23;2.17;;;2.07;;
7003;SDS011;3542;48.812;9.146;2022-08-01T11:32:56;2.40;;;2.20;;
7003;SDS011;3542;48.812;9.146;2022-08-01T11:35:22;3.00;;;2.70;;
7003;SDS011;3542;48.812;9.146;2022-08-01T11:37:49;2.27;;;2.17;;
7003;SDS011;3542;48.812;9.146;2022-08-01T11:40:24;2.30;;;2.10;;
7003;SDS011;3542;48.812;9.146;2022-08-01T11:45:47;2.43;;;2.33;;
7003;SDS011;3542;48.812;9.146;2022-08-01T11:48:23;2.70;;;2.37;;
7003;SDS011;3542;48.812;9.146;2022-08-01T11:50:51;3.20;;;2.00;;
7003;SDS011;3542;48.812;9.146;2022-08-01T11:53:18;3.67;;;1.97;;
7003;SDS011;3542;48.812;9.146;2022-08-01T11:55:51;2.23;;;2.03;;
7003;SDS011;3542;48.812;9.146;2022-08-01T11:58:23;3.67;;;2.10;;
7003;SDS011;3542;48.812;9.146;2022-08-01T12:00:53;2.23;;;2.03;;
7003;SDS011;3542;48.812;9.146;2022-08-01T12:03:26;3.73;;;2.40;;
7003;SDS011;3542;48.812;9.146;2022-08-01T12:05:53;2.10;;;1.87;;
7003;SDS011;3542;48.812;9.146;2022-08-01T12:08:29;1.87;;;1.70;;
7003;SDS011;3542;48.812;9.146;2022-08-01T12:10:58;4.70;;;2.73;;
7003;SDS011;3542;48.812;9.146;2022-08-01T12:13:25;2.40;;;2.30;;
7003;SDS011;3542;48.812;9.146;2022-08-01T12:15:51;2.80;;;2.60;;
7003;SDS011;3542;48.812;9.146;2022-08-01T12:18:17;2.33;;;2.10;;
7003;SDS011;3542;48.812;9.146;2022-08-01T12:20:43;3.20;;;2.90;;
7003;SDS011;3542;48.812;9.146;2022-08-01T12:23:10;2.90;;;2.27;;
7003;SDS011;3542;48.812;9.146;2022-08-01T12:25:38;2.67;;;2.40;;
7003;SDS011;3542;48.812;9.146;2022-08-01T12:28:06;4.33;;;2.57;;
7003;SDS011;3542;48.812;9.146;2022-08-01T12:30:34;2.00;;;1.90;;
7003;SDS011;3542;48.812;9.146;2022-08-01T12:33:02;2.63;;;2.23;;
7003;SDS011;3542;48.812;9.146;2022-08-01T12:35:30;2.40;;;2.20;;
7003;SDS011;3542;48.812;9.146;2022-08-01T12:37:57;2.73;;;2.10;;
7003;SDS011;3542;48.812;9.146;2022-08-01T12:40:29;2.10;;;2.00;;
7003;SDS011;3542;48.812;9.146;2022-08-01T12:42:57;2.40;;;2.10;;
7003;SDS011;3542;48.812;9.146;2022-08-01T12:47:52;2.47;;;2.20;;
7003;SDS011;3542;48.812;9.146;2022-08-01T12:50:19;3.10;;;2.70;;
7003;SDS011;3542;48.812;9.146;2022-08-01T12:52:47;2.10;;;2.00;;
7003;SDS011;3542;48.812;9.146;2022-08-01T12:57:49;2.23;;;1.73;;
7003;SDS011;3542;48.812;9.146;2022-08-01T13:00:29;3.13;;;1.90;;
7003;SDS011;3542;48.812;9.146;2022-08-01T13:05:27;1.93;;;1.83;;
7003;SDS011;3542;48.812;9.146;2022-08-01T13:08:08;4.37;;;3.00;;
7003;SDS011;3542;48.812;9.146;2022-08-01T13:10:43;4.50;;;2.30;;
7003;SDS011;3542;48.812;9.146;2022-08-01T13:13:09;1.90;;;1.80;;
7003;SDS011;3542;48.812;9.146;2022-08-01T13:15:37;3.10;;;2.80;;
7003;SDS011;3542;48.812;9.146;2022-08-01T13:18:37;1.67;;;1.57;;
7003;SDS011;3542;48.812;9.146;2022-08-01T13:21:13;2.67;;;2.10;;
7003;SDS011;3542;48.812;9.146;2022-08-01T13:23:41;3.67;;;2.00;;
7003;SDS011;3542;48.812;9.146;2022-08-01T13:29:37;2.47;;;1.80;;
7003;SDS011;3542;48.812;9.146;2022-08-01T13:32:19;2.03;;;1.93;;
7003;SDS011;3542;48.812;9.146;2022-08-01T13:34:46;2.60;;;2.00;;
7003;SDS011;3542;48.812;9.146;2022-08-01T13:37:12;5.10;;;1.90;;
7003;SDS011;3542;48.812;9.146;2022-08-01T13:39:37;3.93;;;2.10;;
7003;SDS011;3542;48.812;9.146;2022-08-01T13:42:06;1.97;;;1.87;;
7003;SDS011;3542;48.812;9.146;2022-08-01T13:44:33;1.80;;;1.70;;
7003;SDS011;3542;48.812;9.146;2022-08-01T13:46:58;1.97;;;1.77;;
7003;SDS011;3542;48.812;9.146;2022-08-01T13:49:24;6.17;;;2.40;;
7003;SDS011;3542;48.812;9.146;2022-08-01T13:51:50;1.53;;;1.40;;
7003;SDS011;3542;48.812;9.146;2022-08-01T13:54:15;2.60;;;1.93;;
7003;SDS011;3542;48.812;9.146;2022-08-01T13:56:42;1.77;;;1.50;;
7003;SDS011;3542;48.812;9.146;2022-08-01T13:59:07;2.33;;;1.80;;
7003;SDS011;3542;48.812;9.146;2022-08-01T14:01:33;2.20;;;2.00;;
7003;SDS011;3542;48.812;9.146;2022-08-01T14:03:59;2.50;;;1.90;;
7003;SDS011;3542;48.812;9.146;2022-08-01T14:06:24;4.77;;;1.90;;
7003;SDS011;3542;48.812;9.146;2022-08-01T14:08:50;2.33;;;2.10;;
7003;SDS011;3542;48.812;9.146;2022-08-01T14:11:16;2.00;;;1.87;;
7003;SDS011;3542;48.812;9.146;2022-08-01T14:13:41;2.73;;;1.83;;
7003;SDS011;3542;48.812;9.146;2022-08-01T14:16:07;2.60;;;1.70;;
7003;SDS011;3542;48.812;9.146;2022-08-01T14:18:33;1.70;;;1.60;;
7003;SDS011;3542;48.812;9.146;2022-08-01T14:20:58;2.67;;;2.43;;
7003;SDS011;3542;48.812;9.146;2022-08-01T14:23:24;2.40;;;2.30;;
7003;SDS011;3542;48.812;9.146;2022-08-01T14:25:50;6.60;;;2.20;;
7003;SDS011;3542;48.812;9.146;2022-08-01T14:28:16;2.40;;;2.20;;
7003;SDS011;3542;48.812;9.146;2022-08-01T14:30:42;1.60;;;1.60;;
7003;SDS011;3542;48.812;9.146;2022-08-01T14:33:08;6.83;;;2.10;;
7003;SDS011;3542;48.812;9.146;2022-08-01T14:35:34;3.10;;;1.47;;
7003;SDS011;3542;48.812;9.146;2022-08-01T14:38:00;3.77;;;2.20;;
7003;SDS011;3542;48.812;9.146;2022-08-01T14:40:25;1.90;;;1.70;;
7003;SDS011;3542;48.812;9.146;2022-08-01T14:42:51;2.03;;;1.93;;
7003;SDS011;3542;48.812;9.146;2022-08-01T14:45:17;1.80;;;1.70;;
7003;SDS011;3542;48.812;9.146;2022-08-01T14:47:42;1.87;;;1.77;;
7003;SDS011;3542;48.812;9.146;2022-08-01T14:50:09;3.90;;;2.40;;
7003;SDS011;3542;48.812;9.146;2022-08-01T14:52:36;2.60;;;1.67;;
7003;SDS011;3542;48.812;9.146;2022-08-01T14:55:03;2.83;;;1.50;;
7003;SDS011;3542;48.812;9.146;2022-08-01T14:57:29;2.17;;;1.97;;
7003;SDS011;3542;48.812;9.146;2022-08-01T14:59:55;4.83;;;1.53;;
7003;SDS011;3542;48.812;9.146;2022-08-01T15:02:20;1.40;;;1.30;;
7003;SDS011;3542;48.812;9.146;2022-08-01T15:04:46;2.00;;;1.90;;
7003;SDS011;3542;48.812;9.146;2022-08-01T15:07:13;1.70;;;1.60;;
7003;SDS011;3542;48.812;9.146;2022-08-01T15:09:40;2.43;;;1.63;;
7003;SDS011;3542;48.812;9.146;2022-08-01T15:12:06;2.87;;;1.53;;
7003;SDS011;3542;48.812;9.146;2022-08-01T15:14:32;3.10;;;1.70;;
7003;SDS011;3542;48.812;9.146;2022-08-01T15:17:14;4.23;;;1.50;;
7003;SDS011;3542;48.812;9.146;2022-08-01T15:19:45;3.53;;;1.80;;
7003;SDS011;3542;48.812;9.146;2022-08-01T15:22:11;2.97;;;1.50;;
7003;SDS011;3542;48.812;9.146;2022-08-01T15:24:37;3.23;;;1.80;;
7003;SDS011;3542;48.812;9.146;2022-08-01T15:27:03;2.90;;;1.50;;
7003;SDS011;3542;48.812;9.146;2022-08-01T15:29:29;1.90;;;1.80;;
7003;SDS011;3542;48.812;9.146;2022-08-01T15:31:54;1.40;;;1.30;;
7003;SDS011;3542;48.812;9.146;2022-08-01T15:34:20;3.90;;;1.77;;
7003;SDS011;3542;48.812;9.146;2022-08-01T15:36:46;2.80;;;1.60;;
7003;SDS011;3542;48.812;9.146;2022-08-01T15:39:12;4.23;;;1.73;;
7003;SDS011;3542;48.812;9.146;2022-08-01T15:41:37;1.90;;;1.80;;
7003;SDS011;3542;48.812;9.146;2022-08-01T15:44:03;1.47;;;1.37;;
7003;SDS011;3542;48.812;9.146;2022-08-01T15:46:29;1.60;;;1.20;;
7003;SDS011;3542;48.812;9.146;2022-08-01T15:48:54;1.40;;;1.33;;
7003;SDS011;3542;48.812;9.146;2022-08-01T15:51:20;1.30;;;1.20;;
7003;SDS011;3542;48.812;9.146;2022-08-01T15:53:45;3.00;;;1.50;;
7003;SDS011;3542;48.812;9.146;2022-08-01T15:56:11;1.50;;;1.40;;
7003;SDS011;3542;48.812;9.146;2022-08-01T15:58:37;1.53;;;1.47;;
7003;SDS011;3542;48.812;9.146;2022-08-01T16:01:03;3.27;;;1.70;;
7003;SDS011;3542;48.812;9.146;2022-08-01T16:03:29;1.53;;;1.43;;
7003;SDS011;3542;48.812;9.146;2022-08-01T16:05:54;5.93;;;2.83;;
7003;SDS011;3542;48.812;9.146;2022-08-01T16:08:20;1.40;;;1.30;;
7003;SDS011;3542;48.812;9.146;2022-08-01T16:10:46;4.03;;;1.80;;
7003;SDS011;3542;48.812;9.146;2022-08-01T16:13:12;1.43;;;1.20;;
7003;SDS011;3542;48.812;9.146;2022-08-01T16:15:38;2.20;;;1.23;;
7003;SDS011;3542;48.812;9.146;2022-08-01T16:18:04;1.83;;;1.50;;
7003;SDS011;3542;48.812;9.146;2022-08-01T16:20:31;1.77;;;1.67;;
7003;SDS011;3542;48.812;9.146;2022-08-01T16:22:57;2.83;;;1.53;;
7003;SDS011;3542;48.812;9.146;2022-08-01T16:25:22;1.13;;;1.07;;
7003;SDS011;3542;48.812;9.146;2022-08-01T16:27:48;1.73;;;1.63;;
7003;SDS011;3542;48.812;9.146;2022-08-01T16:30:14;1.70;;;1.60;;
7003;SDS011;3542;48.812;9.146;2022-08-01T16:32:39;3.00;;;1.10;;
7003;SDS011;3542;48.812;9.146;2022-08-01T16:35:05;1.33;;;1.23;;
7003;SDS011;3542;48.812;9.146;2022-08-01T16:37:31;2.53;;;1.30;;
7003;SDS011;3542;48.812;9.146;2022-08-01T16:39:56;2.47;;;1.03;;
7003;SDS011;3542;48.812;9.146;2022-08-01T16:42:22;1.13;;;1.00;;
7003;SDS011;3542;48.812;9.146;2022-08-01T16:44:47;1.40;;;1.30;;
7003;SDS011;3542;48.812;9.146;2022-08-01T16:47:13;0.97;;;0.97;;
7003;SDS011;3542;48.812;9.146;2022-08-01T16:49:38;1.60;;;1.10;;
7003;SDS011;3542;48.812;9.146;2022-08-01T16:52:04;1.20;;;1.10;;
7003;SDS011;3542;48.812;9.146;2022-08-01T16:54:29;2.20;;;1.10;;
7003;SDS011;3542;48.812;9.146;2022-08-01T16:56:55;1.70;;;0.93;;
7003;SDS011;3542;48.812;9.146;2022-08-01T16:59:20;2.60;;;1.37;;
7003;SDS011;3542;48.812;9.146;2022-08-01T17:01:46;1.17;;;1.17;;
7003;SDS011;3542;48.812;9.146;2022-08-01T17:04:11;2.40;;;1.00;;
7003;SDS011;3542;48.812;9.146;2022-08-01T17:06:37;1.60;;;1.50;;
7003;SDS011;3542;48.812;9.146;2022-08-01T17:09:03;1.63;;;1.53;;
7003;SDS011;3542;48.812;9.146;2022-08-01T17:11:29;5.20;;;1.30;;
7003;SDS011;3542;48.812;9.146;2022-08-01T17:13:55;2.53;;;1.33;;
7003;SDS011;3542;48.812;9.146;2022-08-01T17:16:20;1.80;;;1.37;;
7003;SDS011;3542;48.812;9.146;2022-08-01T17:18:46;1.20;;;1.03;;